sensor_id;sensor_type;location;lat;lon;timestamp;P1;durP1;ratioP1;P2;durP2;ratioP2
60060;SDS011;45933;51.336;12.612;2022-10-16T00:00:16;2.38;;;0.60;;
60060;SDS011;45933;51.336;12.612;2022-10-16T00:02:42;1.50;;;0.40;;
60060;SDS011;45933;51.336;12.612;2022-10-16T00:05:07;0.95;;;0.50;;
60060;SDS011;45933;51.336;12.612;2022-10-16T00:07:32;2.53;;;0.63;;
60060;SDS011;45933;51.336;12.612;2022-10-16T00:09:58;0.43;;;0.43;;
60060;SDS011;45933;51.336;12.612;2022-10-16T00:12:23;0.70;;;0.60;;
60060;SDS011;45933;51.336;12.612;2022-10-16T00:14:48;0.40;;;0.40;;
60060;SDS011;45933;51.336;12.612;2022-10-16T00:17:14;1.10;;;0.40;;
60060;SDS011;45933;51.336;12.612;2022-10-16T00:19:39;3.50;;;0.50;;
60060;SDS011;45933;51.336;12.612;2022-10-16T00:22:04;2.25;;;0.70;;
60060;SDS011;45933;51.336;12.612;2022-10-16T00:24:30;0.55;;;0.40;;
60060;SDS011;45933;51.336;12.612;2022-10-16T00:26:55;2.65;;;0.60;;
60060;SDS011;45933;51.336;12.612;2022-10-16T00:29:20;0.55;;;0.50;;
60060;SDS011;45933;51.336;12.612;2022-10-16T00:31:46;1.13;;;0.70;;
60060;SDS011;45933;51.336;12.612;2022-10-16T00:34:11;2.17;;;0.50;;
60060;SDS011;45933;51.336;12.612;2022-10-16T00:36:36;1.67;;;0.60;;
60060;SDS011;45933;51.336;12.612;2022-10-16T00:39:02;0.60;;;0.60;;
60060;SDS011;45933;51.336;12.612;2022-10-16T00:41:27;4.03;;;0.57;;
60060;SDS011;45933;51.336;12.612;2022-10-16T00:43:57;1.40;;;0.60;;
60060;SDS011;45933;51.336;12.612;2022-10-16T00:46:38;1.10;;;0.60;;
60060;SDS011;45933;51.336;12.612;2022-10-16T00:49:06;1.08;;;0.80;;
60060;SDS011;45933;51.336;12.612;2022-10-16T00:51:41;2.50;;;1.00;;
60060;SDS011;45933;51.336;12.612;2022-10-16T00:54:13;3.03;;;1.27;;
60060;SDS011;45933;51.336;12.612;2022-10-16T00:56:42;4.22;;;1.95;;
60060;SDS011;45933;51.336;12.612;2022-10-16T00:59:14;5.10;;;2.30;;
60060;SDS011;45933;51.336;12.612;2022-10-16T01:01:41;3.58;;;2.25;;
60060;SDS011;45933;51.336;12.612;2022-10-16T01:04:07;3.83;;;1.95;;
60060;SDS011;45933;51.336;12.612;2022-10-16T01:09:35;1.88;;;1.50;;
60060;SDS011;45933;51.336;12.612;2022-10-16T01:12:15;3.03;;;1.40;;
60060;SDS011;45933;51.336;12.612;2022-10-16T01:14:48;5.20;;;1.00;;
60060;SDS011;45933;51.336;12.612;2022-10-16T01:17:23;1.38;;;1.08;;
60060;SDS011;45933;51.336;12.612;2022-10-16T01:20:05;2.25;;;1.10;;
60060;SDS011;45933;51.336;12.612;2022-10-16T01:22:48;1.80;;;0.88;;
60060;SDS011;45933;51.336;12.612;2022-10-16T01:25:25;1.05;;;0.75;;
60060;SDS011;45933;51.336;12.612;2022-10-16T01:28:13;2.97;;;0.98;;
60060;SDS011;45933;51.336;12.612;2022-10-16T01:30:41;0.90;;;0.90;;
60060;SDS011;45933;51.336;12.612;2022-10-16T01:33:12;1.98;;;0.88;;
60060;SDS011;45933;51.336;12.612;2022-10-16T01:35:42;1.40;;;0.70;;
60060;SDS011;45933;51.336;12.612;2022-10-16T01:38:16;0.73;;;0.60;;
60060;SDS011;45933;51.336;12.612;2022-10-16T01:40:49;1.20;;;0.60;;
60060;SDS011;45933;51.336;12.612;2022-10-16T01:43:19;1.65;;;0.50;;
60060;SDS011;45933;51.336;12.612;2022-10-16T01:45:49;1.00;;;0.50;;
60060;SDS011;45933;51.336;12.612;2022-10-16T01:48:16;0.75;;;0.50;;
60060;SDS011;45933;51.336;12.612;2022-10-16T01:50:44;0.55;;;0.50;;
60060;SDS011;45933;51.336;12.612;2022-10-16T01:53:19;0.70;;;0.55;;
60060;SDS011;45933;51.336;12.612;2022-10-16T01:55:46;0.43;;;0.43;;
60060;SDS011;45933;51.336;12.612;2022-10-16T01:58:13;1.15;;;0.60;;
60060;SDS011;45933;51.336;12.612;2022-10-16T02:00:40;0.40;;;0.40;;
60060;SDS011;45933;51.336;12.612;2022-10-16T02:03:09;0.60;;;0.40;;
60060;SDS011;45933;51.336;12.612;2022-10-16T02:05:42;1.83;;;0.47;;
60060;SDS011;45933;51.336;12.612;2022-10-16T02:08:11;4.97;;;0.95;;
60060;SDS011;45933;51.336;12.612;2022-10-16T02:10:37;0.73;;;0.45;;
60060;SDS011;45933;51.336;12.612;2022-10-16T02:13:07;0.43;;;0.40;;
60060;SDS011;45933;51.336;12.612;2022-10-16T02:15:34;1.60;;;0.50;;
60060;SDS011;45933;51.336;12.612;2022-10-16T02:17:59;0.40;;;0.40;;
60060;SDS011;45933;51.336;12.612;2022-10-16T02:20:27;0.47;;;0.45;;
60060;SDS011;45933;51.336;12.612;2022-10-16T02:22:55;1.65;;;0.52;;
60060;SDS011;45933;51.336;12.612;2022-10-16T02:25:22;0.55;;;0.50;;
60060;SDS011;45933;51.336;12.612;2022-10-16T02:28:02;1.45;;;1.02;;
60060;SDS011;45933;51.336;12.612;2022-10-16T02:33:09;1.98;;;0.40;;
60060;SDS011;45933;51.336;12.612;2022-10-16T02:35:38;3.13;;;0.60;;
60060;SDS011;45933;51.336;12.612;2022-10-16T02:38:06;0.52;;;0.40;;
60060;SDS011;45933;51.336;12.612;2022-10-16T02:40:32;1.45;;;0.40;;
60060;SDS011;45933;51.336;12.612;2022-10-16T02:42:58;0.77;;;0.60;;
60060;SDS011;45933;51.336;12.612;2022-10-16T02:45:23;1.10;;;0.57;;
60060;SDS011;45933;51.336;12.612;2022-10-16T02:47:49;0.52;;;0.40;;
60060;SDS011;45933;51.336;12.612;2022-10-16T02:50:15;0.50;;;0.40;;
60060;SDS011;45933;51.336;12.612;2022-10-16T02:52:40;1.85;;;0.50;;
60060;SDS011;45933;51.336;12.612;2022-10-16T02:55:06;0.70;;;0.40;;
60060;SDS011;45933;51.336;12.612;2022-10-16T02:57:32;0.82;;;0.50;;
60060;SDS011;45933;51.336;12.612;2022-10-16T02:59:57;0.60;;;0.50;;
60060;SDS011;45933;51.336;12.612;2022-10-16T03:02:23;1.13;;;0.60;;
60060;SDS011;45933;51.336;12.612;2022-10-16T03:04:49;1.15;;;0.50;;
60060;SDS011;45933;51.336;12.612;2022-10-16T03:07:14;0.75;;;0.47;;
60060;SDS011;45933;51.336;12.612;2022-10-16T03:09:39;1.67;;;0.55;;
60060;SDS011;45933;51.336;12.612;2022-10-16T03:12:05;0.43;;;0.43;;
60060;SDS011;45933;51.336;12.612;2022-10-16T03:14:30;0.50;;;0.40;;
60060;SDS011;45933;51.336;12.612;2022-10-16T03:16:56;1.30;;;0.50;;
60060;SDS011;45933;51.336;12.612;2022-10-16T03:19:21;0.93;;;0.70;;
60060;SDS011;45933;51.336;12.612;2022-10-16T03:21:47;0.55;;;0.55;;
60060;SDS011;45933;51.336;12.612;2022-10-16T03:24:12;0.57;;;0.50;;
60060;SDS011;45933;51.336;12.612;2022-10-16T03:26:37;1.88;;;0.50;;
60060;SDS011;45933;51.336;12.612;2022-10-16T03:29:03;1.08;;;0.70;;
60060;SDS011;45933;51.336;12.612;2022-10-16T03:31:29;0.88;;;0.52;;
60060;SDS011;45933;51.336;12.612;2022-10-16T03:33:54;0.82;;;0.55;;
60060;SDS011;45933;51.336;12.612;2022-10-16T03:36:20;2.38;;;0.50;;
60060;SDS011;45933;51.336;12.612;2022-10-16T03:38:45;2.95;;;0.50;;
60060;SDS011;45933;51.336;12.612;2022-10-16T03:41:11;2.47;;;0.60;;
60060;SDS011;45933;51.336;12.612;2022-10-16T03:43:36;1.05;;;0.50;;
60060;SDS011;45933;51.336;12.612;2022-10-16T03:46:01;0.55;;;0.45;;
60060;SDS011;45933;51.336;12.612;2022-10-16T03:48:27;0.30;;;0.30;;
60060;SDS011;45933;51.336;12.612;2022-10-16T03:50:52;0.73;;;0.50;;
60060;SDS011;45933;51.336;12.612;2022-10-16T03:53:17;2.38;;;0.60;;
60060;SDS011;45933;51.336;12.612;2022-10-16T03:55:43;0.95;;;0.60;;
60060;SDS011;45933;51.336;12.612;2022-10-16T03:58:09;0.60;;;0.50;;
60060;SDS011;45933;51.336;12.612;2022-10-16T04:00:35;0.50;;;0.45;;
60060;SDS011;45933;51.336;12.612;2022-10-16T04:03:01;0.75;;;0.55;;
60060;SDS011;45933;51.336;12.612;2022-10-16T04:05:26;2.30;;;0.73;;
60060;SDS011;45933;51.336;12.612;2022-10-16T04:07:51;0.55;;;0.52;;
60060;SDS011;45933;51.336;12.612;2022-10-16T04:10:17;0.65;;;0.65;;
60060;SDS011;45933;51.336;12.612;2022-10-16T04:12:43;0.82;;;0.60;;
60060;SDS011;45933;51.336;12.612;2022-10-16T04:15:08;0.50;;;0.50;;
60060;SDS011;45933;51.336;12.612;2022-10-16T04:17:34;0.95;;;0.63;;
60060;SDS011;45933;51.336;12.612;2022-10-16T04:20:00;1.85;;;0.50;;
60060;SDS011;45933;51.336;12.612;2022-10-16T04:22:25;0.70;;;0.40;;
60060;SDS011;45933;51.336;12.612;2022-10-16T04:24:50;0.60;;;0.52;;
60060;SDS011;45933;51.336;12.612;2022-10-16T04:27:16;1.15;;;1.02;;
60060;SDS011;45933;51.336;12.612;2022-10-16T04:29:41;0.50;;;0.50;;
60060;SDS011;45933;51.336;12.612;2022-10-16T04:32:07;1.05;;;0.60;;
60060;SDS011;45933;51.336;12.612;2022-10-16T04:34:33;4.10;;;0.60;;
60060;SDS011;45933;51.336;12.612;2022-10-16T04:36:59;0.82;;;0.50;;
60060;SDS011;45933;51.336;12.612;2022-10-16T04:39:24;0.50;;;0.50;;
60060;SDS011;45933;51.336;12.612;2022-10-16T04:41:50;1.58;;;0.60;;
60060;SDS011;45933;51.336;12.612;2022-10-16T04:44:15;2.58;;;0.70;;
60060;SDS011;45933;51.336;12.612;2022-10-16T04:46:40;2.85;;;0.60;;
60060;SDS011;45933;51.336;12.612;2022-10-16T04:49:06;0.88;;;0.60;;
60060;SDS011;45933;51.336;12.612;2022-10-16T04:51:31;3.15;;;1.05;;
60060;SDS011;45933;51.336;12.612;2022-10-16T04:53:56;1.17;;;0.60;;
60060;SDS011;45933;51.336;12.612;2022-10-16T04:56:22;0.70;;;0.70;;
60060;SDS011;45933;51.336;12.612;2022-10-16T04:58:48;1.05;;;0.75;;
60060;SDS011;45933;51.336;12.612;2022-10-16T05:01:13;0.73;;;0.68;;
60060;SDS011;45933;51.336;12.612;2022-10-16T05:03:38;1.75;;;0.73;;
60060;SDS011;45933;51.336;12.612;2022-10-16T05:06:07;2.88;;;0.80;;
60060;SDS011;45933;51.336;12.612;2022-10-16T05:08:32;2.20;;;0.60;;
60060;SDS011;45933;51.336;12.612;2022-10-16T05:10:58;1.77;;;0.68;;
60060;SDS011;45933;51.336;12.612;2022-10-16T05:13:23;0.73;;;0.68;;
60060;SDS011;45933;51.336;12.612;2022-10-16T05:15:49;1.90;;;0.77;;
60060;SDS011;45933;51.336;12.612;2022-10-16T05:18:15;1.23;;;0.60;;
60060;SDS011;45933;51.336;12.612;2022-10-16T05:20:41;1.98;;;0.80;;
60060;SDS011;45933;51.336;12.612;2022-10-16T05:23:06;5.00;;;0.85;;
60060;SDS011;45933;51.336;12.612;2022-10-16T05:25:32;0.75;;;0.75;;
60060;SDS011;45933;51.336;12.612;2022-10-16T05:27:57;1.60;;;1.10;;
60060;SDS011;45933;51.336;12.612;2022-10-16T05:30:22;0.77;;;0.65;;
60060;SDS011;45933;51.336;12.612;2022-10-16T05:32:49;1.92;;;0.60;;
60060;SDS011;45933;51.336;12.612;2022-10-16T05:35:16;2.17;;;0.85;;
60060;SDS011;45933;51.336;12.612;2022-10-16T05:37:43;0.52;;;0.52;;
60060;SDS011;45933;51.336;12.612;2022-10-16T05:40:08;1.33;;;0.70;;
60060;SDS011;45933;51.336;12.612;2022-10-16T05:42:34;1.13;;;0.70;;
60060;SDS011;45933;51.336;12.612;2022-10-16T05:44:59;3.17;;;0.77;;
60060;SDS011;45933;51.336;12.612;2022-10-16T05:47:25;1.67;;;0.60;;
60060;SDS011;45933;51.336;12.612;2022-10-16T05:49:51;1.05;;;0.85;;
60060;SDS011;45933;51.336;12.612;2022-10-16T05:52:16;3.05;;;1.00;;
60060;SDS011;45933;51.336;12.612;2022-10-16T05:54:41;1.88;;;0.90;;
60060;SDS011;45933;51.336;12.612;2022-10-16T05:57:07;1.95;;;0.82;;
60060;SDS011;45933;51.336;12.612;2022-10-16T05:59:32;0.70;;;0.70;;
60060;SDS011;45933;51.336;12.612;2022-10-16T06:01:57;0.68;;;0.60;;
60060;SDS011;45933;51.336;12.612;2022-10-16T06:04:23;1.38;;;1.08;;
60060;SDS011;45933;51.336;12.612;2022-10-16T06:06:48;2.15;;;0.60;;
60060;SDS011;45933;51.336;12.612;2022-10-16T06:09:13;0.70;;;0.70;;
60060;SDS011;45933;51.336;12.612;2022-10-16T06:11:39;0.70;;;0.70;;
60060;SDS011;45933;51.336;12.612;2022-10-16T06:14:05;1.10;;;0.68;;
60060;SDS011;45933;51.336;12.612;2022-10-16T06:16:32;0.60;;;0.60;;
60060;SDS011;45933;51.336;12.612;2022-10-16T06:18:59;0.70;;;0.60;;
60060;SDS011;45933;51.336;12.612;2022-10-16T06:21:25;1.60;;;0.85;;
60060;SDS011;45933;51.336;12.612;2022-10-16T06:23:52;0.77;;;0.60;;
60060;SDS011;45933;51.336;12.612;2022-10-16T06:26:20;2.88;;;0.95;;
60060;SDS011;45933;51.336;12.612;2022-10-16T06:28:47;0.98;;;0.70;;
60060;SDS011;45933;51.336;12.612;2022-10-16T06:31:13;1.92;;;0.60;;
60060;SDS011;45933;51.336;12.612;2022-10-16T06:33:39;1.77;;;1.15;;
60060;SDS011;45933;51.336;12.612;2022-10-16T06:38:33;0.90;;;0.70;;
60060;SDS011;45933;51.336;12.612;2022-10-16T06:40:58;0.90;;;0.52;;
60060;SDS011;45933;51.336;12.612;2022-10-16T06:43:24;0.98;;;0.82;;
60060;SDS011;45933;51.336;12.612;2022-10-16T06:45:59;2.42;;;0.60;;
60060;SDS011;45933;51.336;12.612;2022-10-16T06:48:26;1.15;;;0.63;;
60060;SDS011;45933;51.336;12.612;2022-10-16T06:51:11;1.75;;;0.73;;
60060;SDS011;45933;51.336;12.612;2022-10-16T06:53:42;2.28;;;0.68;;
60060;SDS011;45933;51.336;12.612;2022-10-16T06:56:16;1.50;;;0.50;;
60060;SDS011;45933;51.336;12.612;2022-10-16T06:58:43;0.98;;;0.60;;
60060;SDS011;45933;51.336;12.612;2022-10-16T07:01:09;1.00;;;0.63;;
60060;SDS011;45933;51.336;12.612;2022-10-16T07:03:44;0.80;;;0.70;;
60060;SDS011;45933;51.336;12.612;2022-10-16T07:06:11;0.75;;;0.45;;
60060;SDS011;45933;51.336;12.612;2022-10-16T07:08:39;0.95;;;0.60;;
60060;SDS011;45933;51.336;12.612;2022-10-16T07:11:07;3.92;;;0.70;;
60060;SDS011;45933;51.336;12.612;2022-10-16T07:13:34;3.35;;;0.60;;
60060;SDS011;45933;51.336;12.612;2022-10-16T07:16:04;0.40;;;0.40;;
60060;SDS011;45933;51.336;12.612;2022-10-16T07:18:30;0.60;;;0.60;;
60060;SDS011;45933;51.336;12.612;2022-10-16T07:21:02;0.95;;;0.70;;
60060;SDS011;45933;51.336;12.612;2022-10-16T07:23:29;2.55;;;0.68;;
60060;SDS011;45933;51.336;12.612;2022-10-16T07:25:54;3.78;;;0.82;;
60060;SDS011;45933;51.336;12.612;2022-10-16T07:28:20;0.90;;;0.80;;
60060;SDS011;45933;51.336;12.612;2022-10-16T07:30:45;0.95;;;0.60;;
60060;SDS011;45933;51.336;12.612;2022-10-16T07:33:11;2.28;;;0.43;;
60060;SDS011;45933;51.336;12.612;2022-10-16T07:35:36;1.95;;;0.60;;
60060;SDS011;45933;51.336;12.612;2022-10-16T07:38:02;0.82;;;0.50;;
60060;SDS011;45933;51.336;12.612;2022-10-16T07:40:27;0.43;;;0.43;;
60060;SDS011;45933;51.336;12.612;2022-10-16T07:42:52;0.60;;;0.60;;
60060;SDS011;45933;51.336;12.612;2022-10-16T07:45:18;1.02;;;0.40;;
60060;SDS011;45933;51.336;12.612;2022-10-16T07:47:43;1.38;;;0.50;;
60060;SDS011;45933;51.336;12.612;2022-10-16T07:50:08;7.93;;;0.70;;
60060;SDS011;45933;51.336;12.612;2022-10-16T07:52:34;0.50;;;0.50;;
60060;SDS011;45933;51.336;12.612;2022-10-16T07:54:59;1.58;;;0.60;;
60060;SDS011;45933;51.336;12.612;2022-10-16T07:57:24;1.67;;;0.47;;
60060;SDS011;45933;51.336;12.612;2022-10-16T07:59:50;2.05;;;1.85;;
60060;SDS011;45933;51.336;12.612;2022-10-16T08:02:15;0.70;;;0.70;;
60060;SDS011;45933;51.336;12.612;2022-10-16T08:04:40;1.30;;;0.82;;
60060;SDS011;45933;51.336;12.612;2022-10-16T08:07:06;1.75;;;1.20;;
60060;SDS011;45933;51.336;12.612;2022-10-16T08:09:32;1.10;;;0.70;;
60060;SDS011;45933;51.336;12.612;2022-10-16T08:11:58;0.60;;;0.50;;
60060;SDS011;45933;51.336;12.612;2022-10-16T08:14:23;0.50;;;0.50;;
60060;SDS011;45933;51.336;12.612;2022-10-16T08:16:48;0.50;;;0.50;;
60060;SDS011;45933;51.336;12.612;2022-10-16T08:19:14;0.82;;;0.47;;
60060;SDS011;45933;51.336;12.612;2022-10-16T08:21:40;0.38;;;0.38;;
60060;SDS011;45933;51.336;12.612;2022-10-16T08:24:06;0.73;;;0.40;;
60060;SDS011;45933;51.336;12.612;2022-10-16T08:26:31;0.70;;;0.32;;
60060;SDS011;45933;51.336;12.612;2022-10-16T08:28:56;0.85;;;0.38;;
60060;SDS011;45933;51.336;12.612;2022-10-16T08:31:22;0.47;;;0.40;;
60060;SDS011;45933;51.336;12.612;2022-10-16T08:33:48;0.68;;;0.40;;
60060;SDS011;45933;51.336;12.612;2022-10-16T08:36:13;4.10;;;0.52;;
60060;SDS011;45933;51.336;12.612;2022-10-16T08:38:40;1.13;;;0.30;;
60060;SDS011;45933;51.336;12.612;2022-10-16T08:47:02;0.50;;;0.30;;
60060;SDS011;45933;51.336;12.612;2022-10-16T08:49:31;1.48;;;0.35;;
60060;SDS011;45933;51.336;12.612;2022-10-16T08:51:57;0.40;;;0.40;;
60060;SDS011;45933;51.336;12.612;2022-10-16T08:57:07;0.85;;;0.43;;
60060;SDS011;45933;51.336;12.612;2022-10-16T08:59:36;0.63;;;0.40;;
60060;SDS011;45933;51.336;12.612;2022-10-16T09:02:01;0.52;;;0.40;;
60060;SDS011;45933;51.336;12.612;2022-10-16T09:04:48;0.65;;;0.35;;
60060;SDS011;45933;51.336;12.612;2022-10-16T09:07:22;0.60;;;0.50;;
60060;SDS011;45933;51.336;12.612;2022-10-16T09:10:20;1.50;;;0.50;;
60060;SDS011;45933;51.336;12.612;2022-10-16T09:15:35;0.35;;;0.30;;
60060;SDS011;45933;51.336;12.612;2022-10-16T09:21:24;0.80;;;0.43;;
60060;SDS011;45933;51.336;12.612;2022-10-16T09:23:54;0.68;;;0.50;;
60060;SDS011;45933;51.336;12.612;2022-10-16T09:26:24;1.70;;;0.55;;
60060;SDS011;45933;51.336;12.612;2022-10-16T09:28:52;0.73;;;0.52;;
60060;SDS011;45933;51.336;12.612;2022-10-16T09:31:20;3.13;;;0.40;;
60060;SDS011;45933;51.336;12.612;2022-10-16T09:33:51;0.47;;;0.43;;
60060;SDS011;45933;51.336;12.612;2022-10-16T09:36:20;1.48;;;0.40;;
60060;SDS011;45933;51.336;12.612;2022-10-16T09:38:48;0.63;;;0.40;;
60060;SDS011;45933;51.336;12.612;2022-10-16T09:41:19;0.50;;;0.50;;
60060;SDS011;45933;51.336;12.612;2022-10-16T09:48:49;0.47;;;0.47;;
60060;SDS011;45933;51.336;12.612;2022-10-16T09:51:36;2.15;;;0.50;;
60060;SDS011;45933;51.336;12.612;2022-10-16T09:54:12;0.50;;;0.40;;
60060;SDS011;45933;51.336;12.612;2022-10-16T09:56:39;2.42;;;0.52;;
60060;SDS011;45933;51.336;12.612;2022-10-16T09:59:15;0.40;;;0.40;;
60060;SDS011;45933;51.336;12.612;2022-10-16T10:01:50;0.93;;;0.60;;
60060;SDS011;45933;51.336;12.612;2022-10-16T10:04:17;0.52;;;0.52;;
60060;SDS011;45933;51.336;12.612;2022-10-16T10:06:45;1.23;;;0.43;;
60060;SDS011;45933;51.336;12.612;2022-10-16T10:09:20;1.30;;;0.93;;
60060;SDS011;45933;51.336;12.612;2022-10-16T10:14:35;1.10;;;0.80;;
60060;SDS011;45933;51.336;12.612;2022-10-16T10:25:22;1.33;;;0.60;;
60060;SDS011;45933;51.336;12.612;2022-10-16T10:28:09;1.02;;;0.68;;
60060;SDS011;45933;51.336;12.612;2022-10-16T10:36:38;2.20;;;0.70;;
60060;SDS011;45933;51.336;12.612;2022-10-16T10:45:03;0.63;;;0.63;;
60060;SDS011;45933;51.336;12.612;2022-10-16T10:50:57;3.00;;;1.17;;
60060;SDS011;45933;51.336;12.612;2022-10-16T10:59:16;4.82;;;1.48;;
60060;SDS011;45933;51.336;12.612;2022-10-16T11:02:15;1.20;;;0.90;;
60060;SDS011;45933;51.336;12.612;2022-10-16T11:07:48;1.20;;;0.85;;
60060;SDS011;45933;51.336;12.612;2022-10-16T11:10:20;1.35;;;0.82;;
60060;SDS011;45933;51.336;12.612;2022-10-16T11:13:10;1.23;;;1.15;;
60060;SDS011;45933;51.336;12.612;2022-10-16T11:15:52;2.38;;;1.10;;
60060;SDS011;45933;51.336;12.612;2022-10-16T11:18:23;3.88;;;1.30;;
60060;SDS011;45933;51.336;12.612;2022-10-16T11:21:06;1.08;;;1.08;;
60060;SDS011;45933;51.336;12.612;2022-10-16T11:26:52;1.00;;;1.00;;
60060;SDS011;45933;51.336;12.612;2022-10-16T11:29:23;2.50;;;1.33;;
60060;SDS011;45933;51.336;12.612;2022-10-16T11:31:55;2.75;;;1.15;;
60060;SDS011;45933;51.336;12.612;2022-10-16T11:34:29;1.30;;;0.90;;
60060;SDS011;45933;51.336;12.612;2022-10-16T11:37:01;0.98;;;0.82;;
60060;SDS011;45933;51.336;12.612;2022-10-16T11:39:34;1.23;;;1.10;;
60060;SDS011;45933;51.336;12.612;2022-10-16T11:44:48;1.52;;;1.23;;
60060;SDS011;45933;51.336;12.612;2022-10-16T11:49:57;2.53;;;1.20;;
60060;SDS011;45933;51.336;12.612;2022-10-16T11:52:28;2.10;;;1.50;;
60060;SDS011;45933;51.336;12.612;2022-10-16T11:57:46;1.73;;;1.08;;
60060;SDS011;45933;51.336;12.612;2022-10-16T12:00:33;1.92;;;1.02;;
60060;SDS011;45933;51.336;12.612;2022-10-16T12:08:56;1.77;;;1.00;;
60060;SDS011;45933;51.336;12.612;2022-10-16T12:14:03;1.50;;;1.23;;
60060;SDS011;45933;51.336;12.612;2022-10-16T12:17:02;1.10;;;1.00;;
60060;SDS011;45933;51.336;12.612;2022-10-16T12:22:37;1.75;;;0.70;;
60060;SDS011;45933;51.336;12.612;2022-10-16T12:27:54;1.67;;;1.00;;
60060;SDS011;45933;51.336;12.612;2022-10-16T12:30:22;2.17;;;0.90;;
60060;SDS011;45933;51.336;12.612;2022-10-16T12:32:53;0.95;;;0.93;;
60060;SDS011;45933;51.336;12.612;2022-10-16T12:35:32;1.15;;;1.05;;
60060;SDS011;45933;51.336;12.612;2022-10-16T12:38:14;1.88;;;0.90;;
60060;SDS011;45933;51.336;12.612;2022-10-16T12:40:46;1.05;;;0.90;;
60060;SDS011;45933;51.336;12.612;2022-10-16T12:43:34;1.60;;;0.90;;
60060;SDS011;45933;51.336;12.612;2022-10-16T12:46:20;1.05;;;0.88;;
60060;SDS011;45933;51.336;12.612;2022-10-16T12:48:48;1.30;;;0.90;;
60060;SDS011;45933;51.336;12.612;2022-10-16T12:57:09;3.00;;;1.38;;
60060;SDS011;45933;51.336;12.612;2022-10-16T13:00:07;1.15;;;1.05;;
60060;SDS011;45933;51.336;12.612;2022-10-16T13:08:36;1.23;;;1.13;;
60060;SDS011;45933;51.336;12.612;2022-10-16T13:19:24;1.13;;;1.00;;
60060;SDS011;45933;51.336;12.612;2022-10-16T13:24:33;3.20;;;1.38;;
60060;SDS011;45933;51.336;12.612;2022-10-16T13:30:08;0.90;;;0.85;;
60060;SDS011;45933;51.336;12.612;2022-10-16T13:32:47;0.85;;;0.73;;
60060;SDS011;45933;51.336;12.612;2022-10-16T13:35:19;0.88;;;0.88;;
60060;SDS011;45933;51.336;12.612;2022-10-16T13:37:49;0.80;;;0.75;;
60060;SDS011;45933;51.336;12.612;2022-10-16T13:40:23;0.77;;;0.70;;
60060;SDS011;45933;51.336;12.612;2022-10-16T13:42:50;1.75;;;0.73;;
60060;SDS011;45933;51.336;12.612;2022-10-16T13:45:18;1.63;;;0.70;;
60060;SDS011;45933;51.336;12.612;2022-10-16T13:47:45;3.53;;;1.42;;
60060;SDS011;45933;51.336;12.612;2022-10-16T13:50:11;3.03;;;0.80;;
60060;SDS011;45933;51.336;12.612;2022-10-16T13:52:39;0.80;;;0.63;;
60060;SDS011;45933;51.336;12.612;2022-10-16T13:55:12;1.20;;;0.65;;
60060;SDS011;45933;51.336;12.612;2022-10-16T13:57:40;0.60;;;0.60;;
60060;SDS011;45933;51.336;12.612;2022-10-16T14:02:58;1.02;;;0.70;;
60060;SDS011;45933;51.336;12.612;2022-10-16T14:05:27;2.08;;;1.10;;
60060;SDS011;45933;51.336;12.612;2022-10-16T14:07:53;0.57;;;0.57;;
60060;SDS011;45933;51.336;12.612;2022-10-16T14:10:21;0.85;;;0.63;;
60060;SDS011;45933;51.336;12.612;2022-10-16T14:12:54;1.48;;;0.60;;
60060;SDS011;45933;51.336;12.612;2022-10-16T14:15:24;0.93;;;0.70;;
60060;SDS011;45933;51.336;12.612;2022-10-16T14:17:50;1.83;;;0.98;;
60060;SDS011;45933;51.336;12.612;2022-10-16T14:20:17;0.52;;;0.52;;
60060;SDS011;45933;51.336;12.612;2022-10-16T14:22:44;1.33;;;0.70;;
60060;SDS011;45933;51.336;12.612;2022-10-16T14:27:45;0.85;;;0.70;;
60060;SDS011;45933;51.336;12.612;2022-10-16T14:30:21;1.58;;;0.70;;
60060;SDS011;45933;51.336;12.612;2022-10-16T14:32:58;1.40;;;0.60;;
60060;SDS011;45933;51.336;12.612;2022-10-16T14:35:32;0.75;;;0.57;;
60060;SDS011;45933;51.336;12.612;2022-10-16T14:38:00;1.27;;;0.55;;
60060;SDS011;45933;51.336;12.612;2022-10-16T14:40:28;1.50;;;0.70;;
60060;SDS011;45933;51.336;12.612;2022-10-16T14:43:01;0.60;;;0.57;;
60060;SDS011;45933;51.336;12.612;2022-10-16T14:45:29;1.05;;;0.75;;
60060;SDS011;45933;51.336;12.612;2022-10-16T14:47:58;1.00;;;0.70;;
60060;SDS011;45933;51.336;12.612;2022-10-16T14:50:27;0.63;;;0.63;;
60060;SDS011;45933;51.336;12.612;2022-10-16T14:52:53;1.00;;;0.90;;
60060;SDS011;45933;51.336;12.612;2022-10-16T14:55:18;10.90;;;1.73;;
60060;SDS011;45933;51.336;12.612;2022-10-16T14:57:44;1.23;;;1.13;;
60060;SDS011;45933;51.336;12.612;2022-10-16T15:00:13;1.00;;;0.90;;
60060;SDS011;45933;51.336;12.612;2022-10-16T15:02:41;0.93;;;0.90;;
60060;SDS011;45933;51.336;12.612;2022-10-16T15:05:28;1.27;;;0.85;;
60060;SDS011;45933;51.336;12.612;2022-10-16T15:07:53;1.52;;;0.65;;
60060;SDS011;45933;51.336;12.612;2022-10-16T15:10:20;0.77;;;0.60;;
60060;SDS011;45933;51.336;12.612;2022-10-16T15:12:47;0.80;;;0.70;;
60060;SDS011;45933;51.336;12.612;2022-10-16T15:18:02;0.70;;;0.70;;
60060;SDS011;45933;51.336;12.612;2022-10-16T15:20:29;1.75;;;1.10;;
60060;SDS011;45933;51.336;12.612;2022-10-16T15:23:02;2.05;;;1.35;;
60060;SDS011;45933;51.336;12.612;2022-10-16T15:25:31;2.33;;;1.80;;
60060;SDS011;45933;51.336;12.612;2022-10-16T15:28:06;1.33;;;1.23;;
60060;SDS011;45933;51.336;12.612;2022-10-16T15:30:33;1.50;;;1.40;;
60060;SDS011;45933;51.336;12.612;2022-10-16T15:32:58;1.48;;;1.30;;
60060;SDS011;45933;51.336;12.612;2022-10-16T15:35:24;1.40;;;1.30;;
60060;SDS011;45933;51.336;12.612;2022-10-16T15:37:50;1.58;;;1.02;;
60060;SDS011;45933;51.336;12.612;2022-10-16T15:40:16;1.40;;;1.30;;
60060;SDS011;45933;51.336;12.612;2022-10-16T15:42:43;1.10;;;1.00;;
60060;SDS011;45933;51.336;12.612;2022-10-16T15:45:09;0.80;;;0.80;;
60060;SDS011;45933;51.336;12.612;2022-10-16T15:47:35;0.77;;;0.77;;
60060;SDS011;45933;51.336;12.612;2022-10-16T15:50:01;0.90;;;0.82;;
60060;SDS011;45933;51.336;12.612;2022-10-16T15:52:26;0.93;;;0.88;;
60060;SDS011;45933;51.336;12.612;2022-10-16T15:54:53;0.75;;;0.75;;
60060;SDS011;45933;51.336;12.612;2022-10-16T15:57:19;0.88;;;0.88;;
60060;SDS011;45933;51.336;12.612;2022-10-16T15:59:44;1.38;;;0.70;;
60060;SDS011;45933;51.336;12.612;2022-10-16T16:02:09;0.93;;;0.82;;
60060;SDS011;45933;51.336;12.612;2022-10-16T16:04:35;1.15;;;1.02;;
60060;SDS011;45933;51.336;12.612;2022-10-16T16:07:00;1.40;;;0.98;;
60060;SDS011;45933;51.336;12.612;2022-10-16T16:09:26;1.02;;;0.90;;
60060;SDS011;45933;51.336;12.612;2022-10-16T16:11:54;1.17;;;0.80;;
60060;SDS011;45933;51.336;12.612;2022-10-16T16:14:20;1.27;;;1.10;;
60060;SDS011;45933;51.336;12.612;2022-10-16T16:16:45;1.27;;;1.17;;
60060;SDS011;45933;51.336;12.612;2022-10-16T16:19:11;2.65;;;1.30;;
60060;SDS011;45933;51.336;12.612;2022-10-16T16:21:36;1.35;;;1.25;;
60060;SDS011;45933;51.336;12.612;2022-10-16T16:24:01;1.95;;;1.80;;
60060;SDS011;45933;51.336;12.612;2022-10-16T16:26:33;2.60;;;2.10;;
60060;SDS011;45933;51.336;12.612;2022-10-16T16:29:01;1.85;;;1.63;;
60060;SDS011;45933;51.336;12.612;2022-10-16T16:31:29;1.80;;;1.50;;
60060;SDS011;45933;51.336;12.612;2022-10-16T16:33:55;2.15;;;1.95;;
60060;SDS011;45933;51.336;12.612;2022-10-16T16:36:24;11.85;;;9.25;;
60060;SDS011;45933;51.336;12.612;2022-10-16T16:38:50;11.73;;;9.52;;
60060;SDS011;45933;51.336;12.612;2022-10-16T16:43:45;2.55;;;2.30;;
60060;SDS011;45933;51.336;12.612;2022-10-16T16:46:10;9.93;;;8.93;;